Search for airport 
image banner adimage banner adimage banner ad
image banner ad

KRAL - Riverside Muni

Located in Riverside, United States

ICAO - RAL, IATA - RAL

Data provided by Airmate  

General information

Coordinates: N33°57'7" W117°26'42"
Elevation is 819 feet MSL.
Magnetic variation is 14° East
View others Airports in California

Operational data

Special qualification required
Current time UTC:
Current local time:
Weather
METAR: KRAL 291453Z 00000KT 10SM CLR 23/09 A2996 RMK AO2 SLP127 T02280094 51007
View NOTAMs / SUP AIP / TFR affecting this airport [VIEW]
Communications frequencies: [VIEW]

Runways:

RWY identifierQFULength (ft)Width (ft)SurfaceLDA (ft)
09103°5401100ASPH
27283°5401100ASPH
16179°285050ASPH
34359°285050ASPH

Airport contact information

Address: Riverside United States

Other aviation service providers

Flight schools

California Aviation Services, Inc.

California Aviation Services, Inc.

Atp Flight School (800-All-Atps)

Atp Flight School (800-All-Atps)
info@allatps.com+1(800)255-2877

Riverside Flight Academy

Riverside Flight Academy

Western Helicopters

Western Helicopters

Nextgen Flight Academy

Nextgen Flight Academy

Alliance International Aviation

Alliance International Aviation
office@aiaflight.com+1(951)354-0747

Satellite view of KRAL